createdAt,value
2022-12-09T00:00:38.703Z,445.03
2022-12-09T00:03:06.203Z,115.47
2022-12-09T00:05:33.011Z,95.80
2022-12-09T00:08:00.521Z,136.07
2022-12-09T00:10:27.624Z,115.73
2022-12-09T00:12:56.330Z,90.37
2022-12-09T00:15:23.234Z,154.87
2022-12-09T00:17:50.060Z,68.73
2022-12-09T00:20:17.046Z,86.33
2022-12-09T00:22:44.017Z,73.13
2022-12-09T00:25:10.742Z,56.03
2022-12-09T00:27:37.767Z,56.00
2022-12-09T00:30:05.945Z,54.67
2022-12-09T00:32:33.507Z,52.70
2022-12-09T00:35:00.965Z,51.30
2022-12-09T00:37:27.777Z,55.23
2022-12-09T00:39:54.906Z,54.63
2022-12-09T00:42:21.745Z,46.60
2022-12-09T00:44:48.709Z,46.77
2022-12-09T00:47:15.531Z,50.17
2022-12-09T00:49:42.389Z,48.83
2022-12-09T00:52:09.153Z,54.67
2022-12-09T00:54:36.308Z,49.90
2022-12-09T00:57:03.111Z,47.57
2022-12-09T00:59:30.304Z,47.33
2022-12-09T01:01:57.306Z,48.40
2022-12-09T01:04:37.346Z,47.00
2022-12-09T01:07:04.323Z,48.87
2022-12-09T01:09:34.406Z,45.97
2022-12-09T01:12:01.753Z,52.33
2022-12-09T01:14:28.896Z,60.73
2022-12-09T01:16:56.422Z,170.63
2022-12-09T01:19:23.632Z,70.50
2022-12-09T01:21:54.917Z,79.10
2022-12-09T01:24:22.670Z,122.33
2022-12-09T01:26:49.712Z,149.07
2022-12-09T01:29:16.881Z,110.70
2022-12-09T01:31:43.832Z,130.07
2022-12-09T01:34:11.347Z,99.60
2022-12-09T01:36:39.003Z,107.07
2022-12-09T01:39:06.394Z,195.60
2022-12-09T01:41:33.646Z,134.90
2022-12-09T01:44:21.911Z,122.63
2022-12-09T01:46:49.938Z,158.10
2022-12-09T01:49:28.858Z,166.77
2022-12-09T01:52:24.356Z,205.27
2022-12-09T01:54:52.845Z,233.90
2022-12-09T01:57:20.051Z,85.07
2022-12-09T01:59:47.313Z,142.23
2022-12-09T02:02:17.746Z,204.77
2022-12-09T02:04:47.990Z,134.30
2022-12-09T02:07:15.293Z,83.10
2022-12-09T02:09:43.174Z,62.90
2022-12-09T02:12:16.286Z,161.40
2022-12-09T02:14:43.514Z,111.90
2022-12-09T02:17:10.327Z,171.97
2022-12-09T02:19:50.640Z,83.10
2022-12-09T02:22:24.739Z,201.57
2022-12-09T02:25:13.936Z,145.43
2022-12-09T02:27:51.164Z,236.53
2022-12-09T02:30:24.563Z,228.00
2022-12-09T02:33:08.941Z,204.20
2022-12-09T02:35:42.174Z,68.07
2022-12-09T02:38:20.464Z,396.23
2022-12-09T02:40:51.061Z,68.87
2022-12-09T02:43:22.424Z,243.13
2022-12-09T02:45:50.587Z,263.77
2022-12-09T02:48:22.918Z,46.90
2022-12-09T02:50:52.868Z,57.13
2022-12-09T02:53:20.883Z,75.67
2022-12-09T02:55:49.159Z,53.60
2022-12-09T02:58:15.919Z,42.57
2022-12-09T03:00:43.151Z,54.07
2022-12-09T03:03:15.305Z,44.90
2022-12-09T03:06:03.524Z,42.80
2022-12-09T03:08:30.777Z,51.43
2022-12-09T03:11:00.482Z,64.33
2022-12-09T03:13:47.465Z,40.90
2022-12-09T03:16:20.128Z,53.10
2022-12-09T03:18:52.783Z,44.33
2022-12-09T03:21:22.608Z,49.37
2022-12-09T03:23:53.725Z,52.00
2022-12-09T03:26:22.214Z,77.03
2022-12-09T03:28:50.995Z,47.60
2022-12-09T03:31:22.299Z,47.03
2022-12-09T03:33:52.951Z,73.60
2022-12-09T03:36:23.095Z,70.80
2022-12-09T03:38:53.581Z,51.50
2022-12-09T03:41:28.612Z,53.60
2022-12-09T03:44:12.634Z,46.90
2022-12-09T03:46:40.122Z,42.10
2022-12-09T03:49:07.454Z,39.90
2022-12-09T03:51:46.280Z,44.70
2022-12-09T03:54:27.014Z,44.30
2022-12-09T03:56:57.226Z,38.93
2022-12-09T03:59:28.698Z,40.13
2022-12-09T04:01:55.905Z,40.00
2022-12-09T04:04:22.960Z,42.73
2022-12-09T04:06:52.454Z,42.77
2022-12-09T04:09:19.303Z,45.50
2022-12-09T04:11:46.940Z,48.10
2022-12-09T04:14:15.991Z,51.77
2022-12-09T04:16:43.846Z,45.50
2022-12-09T04:19:11.084Z,44.20
2022-12-09T04:21:37.951Z,44.77
2022-12-09T04:24:05.040Z,47.20
2022-12-09T04:26:31.824Z,50.43
2022-12-09T04:28:59.033Z,43.77
2022-12-09T04:31:25.897Z,50.37
2022-12-09T04:33:52.694Z,48.47
2022-12-09T04:36:20.306Z,66.60
2022-12-09T04:38:47.839Z,61.37
2022-12-09T04:41:15.438Z,44.57
2022-12-09T04:43:42.628Z,46.93
2022-12-09T04:46:12.996Z,47.30
2022-12-09T04:48:40.002Z,47.90
2022-12-09T04:51:11.918Z,45.07
2022-12-09T04:53:39.457Z,44.67
2022-12-09T04:56:21.446Z,46.80
2022-12-09T04:58:50.020Z,41.13
2022-12-09T05:01:22.639Z,48.33
2022-12-09T05:03:54.112Z,45.73
2022-12-09T05:06:22.965Z,43.77
2022-12-09T05:08:51.328Z,36.80
2022-12-09T05:11:19.895Z,43.00
2022-12-09T05:13:47.943Z,42.00
2022-12-09T05:16:18.373Z,43.20
2022-12-09T05:18:47.347Z,42.00
2022-12-09T05:21:17.289Z,42.63
2022-12-09T05:23:44.537Z,54.70
2022-12-09T05:26:14.514Z,42.77
2022-12-09T05:28:41.767Z,40.77
2022-12-09T05:31:12.366Z,40.70
2022-12-09T05:33:39.729Z,39.13
2022-12-09T05:36:13.765Z,46.43
2022-12-09T05:38:41.914Z,43.00
2022-12-09T05:41:09.215Z,52.10
2022-12-09T05:43:37.244Z,44.47
2022-12-09T05:46:05.943Z,45.53
2022-12-09T05:48:33.474Z,47.60
2022-12-09T05:51:05.343Z,51.93
2022-12-09T05:53:32.969Z,55.67
2022-12-09T05:56:00.215Z,40.47
2022-12-09T05:58:27.676Z,48.07
2022-12-09T06:00:56.714Z,48.53
2022-12-09T06:03:25.122Z,43.80
2022-12-09T06:05:52.346Z,43.23
2022-12-09T06:08:19.894Z,42.47
2022-12-09T06:10:47.418Z,52.87
2022-12-09T06:13:14.728Z,43.20
2022-12-09T06:15:41.829Z,60.37
2022-12-09T06:18:09.237Z,54.47
2022-12-09T06:20:39.883Z,42.50
2022-12-09T06:23:07.322Z,43.60
2022-12-09T06:25:34.951Z,37.37
2022-12-09T06:28:02.817Z,45.00
2022-12-09T06:30:30.766Z,49.47
2022-12-09T06:32:58.421Z,54.73
2022-12-09T06:35:26.060Z,48.17
2022-12-09T06:37:53.707Z,40.60
2022-12-09T06:40:24.315Z,38.00
2022-12-09T06:42:51.910Z,40.87
2022-12-09T06:45:19.971Z,27.70
2022-12-09T06:47:47.800Z,42.10
2022-12-09T06:50:15.446Z,35.00
2022-12-09T06:52:42.886Z,43.80
2022-12-09T06:55:11.217Z,42.43
2022-12-09T06:57:38.918Z,26.83
2022-12-09T07:00:06.596Z,27.90
2022-12-09T07:02:36.895Z,31.77
2022-12-09T07:05:05.469Z,31.87
2022-12-09T07:07:33.323Z,43.20
2022-12-09T07:10:03.107Z,33.63
2022-12-09T07:12:30.921Z,39.47
2022-12-09T07:14:58.225Z,30.50
2022-12-09T07:17:25.490Z,36.57
2022-12-09T07:19:52.689Z,37.40
2022-12-09T07:22:19.737Z,40.97
2022-12-09T07:24:46.503Z,46.10
2022-12-09T07:27:19.290Z,38.73
2022-12-09T07:29:48.178Z,37.70
2022-12-09T07:32:17.263Z,35.73
2022-12-09T07:34:45.704Z,44.03
2022-12-09T07:37:13.890Z,38.23
2022-12-09T07:39:41.227Z,34.00
2022-12-09T07:42:08.298Z,34.93
2022-12-09T07:44:36.502Z,36.17
2022-12-09T07:47:04.044Z,37.53
2022-12-09T07:49:31.123Z,31.63
2022-12-09T07:51:58.757Z,36.00
2022-12-09T07:54:25.996Z,32.40
2022-12-09T07:56:53.153Z,35.20
2022-12-09T07:59:21.083Z,31.37
2022-12-09T08:01:48.114Z,35.60
2022-12-09T08:04:15.505Z,37.73
2022-12-09T08:06:42.530Z,43.87
2022-12-09T08:09:12.657Z,42.63
2022-12-09T08:11:40.940Z,36.80
2022-12-09T08:14:12.549Z,39.47
2022-12-09T08:16:42.005Z,46.57
2022-12-09T08:19:10.259Z,61.03
2022-12-09T08:21:37.742Z,43.77
2022-12-09T08:24:07.796Z,41.60
2022-12-09T08:26:37.538Z,57.13
2022-12-09T08:29:08.418Z,41.30
2022-12-09T08:31:40.602Z,41.23
2022-12-09T08:34:09.007Z,41.83
2022-12-09T08:36:37.111Z,40.50
2022-12-09T08:39:05.277Z,39.07
2022-12-09T08:41:37.750Z,38.27
2022-12-09T08:44:07.226Z,57.83
2022-12-09T08:46:34.957Z,36.07
2022-12-09T08:49:02.766Z,41.37
2022-12-09T08:51:31.125Z,36.00
2022-12-09T08:53:58.955Z,39.60
2022-12-09T08:56:27.034Z,40.90
2022-12-09T08:58:55.575Z,44.80
2022-12-09T09:01:37.365Z,39.93
2022-12-09T09:04:09.614Z,43.70
2022-12-09T09:06:38.715Z,36.07
2022-12-09T09:09:08.337Z,39.60
2022-12-09T09:11:38.836Z,37.17
2022-12-09T09:14:08.497Z,38.10
2022-12-09T09:16:37.230Z,41.43
2022-12-09T09:19:06.008Z,38.03
2022-12-09T09:21:34.014Z,37.03
2022-12-09T09:24:01.660Z,40.63
2022-12-09T09:26:29.047Z,43.40
2022-12-09T09:28:59.283Z,30.97
2022-12-09T09:31:26.761Z,38.77
2022-12-09T09:33:54.233Z,31.60
2022-12-09T09:36:26.446Z,39.33
2022-12-09T09:38:55.960Z,36.37
2022-12-09T09:41:44.513Z,41.13
2022-12-09T09:44:33.896Z,40.70
2022-12-09T09:47:11.526Z,45.33
2022-12-09T09:49:58.822Z,36.40
2022-12-09T09:52:28.409Z,40.03
2022-12-09T09:54:58.615Z,39.07
2022-12-09T09:57:54.356Z,37.97
2022-12-09T10:00:32.537Z,32.93
2022-12-09T10:03:10.653Z,34.27
2022-12-09T10:05:53.860Z,34.17
2022-12-09T10:08:28.003Z,31.63
2022-12-09T10:11:20.021Z,32.03
2022-12-09T10:13:56.239Z,36.00
2022-12-09T10:16:31.479Z,32.63
2022-12-09T10:19:12.205Z,35.07
2022-12-09T10:21:44.362Z,33.07
2022-12-09T10:24:20.234Z,34.10
2022-12-09T10:27:06.875Z,35.80
2022-12-09T10:29:53.036Z,33.87
2022-12-09T10:32:23.428Z,35.20
2022-12-09T10:34:51.430Z,39.00
2022-12-09T10:37:38.926Z,33.67
2022-12-09T10:40:16.384Z,41.43
2022-12-09T10:43:02.122Z,32.90
2022-12-09T10:45:52.487Z,30.50
2022-12-09T10:48:32.454Z,26.47
2022-12-09T10:51:03.918Z,27.40
2022-12-09T10:53:33.241Z,23.93
2022-12-09T10:56:02.640Z,26.53
2022-12-09T10:58:31.863Z,23.00
2022-12-09T11:01:00.895Z,29.30
2022-12-09T11:03:40.559Z,24.53
2022-12-09T11:06:23.124Z,25.87
2022-12-09T11:09:02.194Z,26.73
2022-12-09T11:11:41.424Z,27.23
2022-12-09T11:14:36.071Z,29.33
2022-12-09T11:17:17.169Z,26.63
2022-12-09T11:19:48.130Z,23.97
2022-12-09T11:22:40.287Z,23.67
2022-12-09T11:25:27.338Z,24.77
2022-12-09T11:27:57.771Z,25.73
2022-12-09T11:30:29.806Z,28.50
2022-12-09T11:32:59.700Z,26.80
2022-12-09T11:35:31.546Z,27.37
2022-12-09T11:38:03.671Z,28.60
2022-12-09T11:40:32.685Z,26.80
2022-12-09T11:42:59.837Z,28.73
2022-12-09T11:45:34.746Z,23.83
2022-12-09T11:48:30.304Z,22.00
2022-12-09T11:51:02.256Z,24.53
2022-12-09T11:53:30.464Z,22.60
2022-12-09T11:56:09.504Z,21.27
2022-12-09T11:58:40.900Z,24.80
2022-12-09T12:01:24.356Z,29.60
2022-12-09T12:03:57.030Z,25.03
2022-12-09T12:06:27.805Z,26.27
2022-12-09T12:09:32.735Z,28.50
2022-12-09T12:12:10.431Z,27.80
2022-12-09T12:14:41.282Z,26.87
2022-12-09T12:17:22.446Z,29.60
2022-12-09T12:19:52.309Z,30.40
2022-12-09T12:23:07.636Z,28.90
2022-12-09T12:26:05.446Z,29.53
2022-12-09T12:28:32.619Z,37.93
2022-12-09T12:31:33.989Z,49.20
2022-12-09T12:34:24.595Z,43.70
2022-12-09T12:37:06.584Z,32.63
2022-12-09T12:39:39.298Z,35.60
2022-12-09T12:42:34.092Z,35.90
2022-12-09T12:45:30.268Z,28.77
2022-12-09T12:48:19.618Z,28.77
2022-12-09T12:51:01.167Z,30.33
2022-12-09T12:53:39.449Z,30.87
2022-12-09T12:56:19.432Z,28.10
2022-12-09T12:58:52.902Z,24.23
2022-12-09T13:01:30.919Z,28.50
2022-12-09T13:04:25.969Z,28.87
2022-12-09T13:07:53.066Z,32.40
2022-12-09T13:10:24.714Z,28.90
2022-12-09T13:12:55.181Z,27.63
2022-12-09T13:15:27.489Z,28.13
2022-12-09T13:17:54.684Z,26.43
2022-12-09T13:20:28.831Z,28.20
2022-12-09T13:23:48.542Z,26.07
2022-12-09T13:26:21.035Z,33.13
2022-12-09T13:28:59.698Z,25.80
2022-12-09T13:31:30.315Z,27.17
2022-12-09T13:34:14.699Z,29.57
2022-12-09T13:36:45.635Z,27.90
2022-12-09T13:39:33.630Z,27.57
2022-12-09T13:42:18.883Z,35.10
2022-12-09T13:44:49.221Z,39.17
2022-12-09T13:47:28.159Z,37.23
2022-12-09T13:50:04.500Z,34.67
2022-12-09T13:52:41.068Z,39.07
2022-12-09T13:55:39.833Z,31.10
2022-12-09T13:58:16.746Z,27.60
2022-12-09T14:01:02.831Z,26.33
2022-12-09T14:03:34.844Z,32.63
2022-12-09T14:06:16.352Z,28.20
2022-12-09T14:08:50.595Z,29.07
2022-12-09T14:11:40.737Z,30.90
2022-12-09T14:14:25.912Z,36.13
2022-12-09T14:16:57.804Z,33.83
2022-12-09T14:19:24.487Z,40.60
2022-12-09T14:22:22.673Z,38.40
2022-12-09T14:24:57.222Z,31.30
2022-12-09T14:27:27.224Z,32.90
2022-12-09T14:29:57.444Z,37.57
2022-12-09T14:32:24.583Z,28.90
2022-12-09T14:35:09.393Z,29.63
2022-12-09T14:37:45.099Z,39.47
2022-12-09T14:40:14.900Z,40.57
2022-12-09T14:43:01.097Z,35.90
2022-12-09T14:45:42.693Z,35.37
2022-12-09T14:48:12.426Z,43.20
2022-12-09T14:50:39.600Z,43.17
2022-12-09T14:53:18.575Z,41.13
2022-12-09T14:55:45.589Z,41.90
2022-12-09T14:58:20.485Z,34.90
2022-12-09T15:00:47.372Z,38.70
2022-12-09T15:03:33.313Z,38.30
2022-12-09T15:06:11.466Z,38.63
2022-12-09T15:08:40.695Z,38.90
2022-12-09T15:11:18.222Z,42.40
2022-12-09T15:13:48.115Z,43.95
2022-12-09T15:16:21.206Z,41.57
2022-12-09T15:18:50.051Z,46.50
2022-12-09T15:21:30.471Z,42.70
2022-12-09T15:23:59.282Z,47.90
2022-12-09T15:26:34.232Z,40.47
2022-12-09T15:29:04.999Z,42.07
2022-12-09T15:31:34.289Z,38.50
2022-12-09T15:34:11.900Z,42.80
2022-12-09T15:36:52.089Z,43.70
2022-12-09T15:39:27.858Z,44.60
2022-12-09T15:42:10.831Z,46.87
2022-12-09T15:44:37.514Z,46.67
2022-12-09T15:47:10.459Z,38.73
2022-12-09T15:49:44.716Z,45.53
2022-12-09T15:52:14.027Z,41.33
2022-12-09T15:54:44.563Z,45.53
2022-12-09T15:57:15.575Z,53.70
2022-12-09T15:59:55.836Z,51.97
2022-12-09T16:02:27.450Z,45.83
2022-12-09T16:04:56.348Z,53.03
2022-12-09T16:07:25.295Z,41.67
2022-12-09T16:10:16.134Z,42.00
2022-12-09T16:12:43.909Z,45.53
2022-12-09T16:15:14.006Z,46.20
2022-12-09T16:17:56.648Z,55.40
2022-12-09T16:20:40.126Z,55.13
2022-12-09T16:23:24.644Z,51.13
2022-12-09T16:25:52.013Z,43.50
2022-12-09T16:28:23.016Z,41.57
2022-12-09T16:30:53.145Z,42.13
2022-12-09T16:33:21.496Z,43.70
2022-12-09T16:35:59.448Z,44.63
2022-12-09T16:38:26.449Z,43.13
2022-12-09T16:40:53.602Z,44.10
2022-12-09T16:43:25.345Z,46.03
2022-12-09T16:46:00.819Z,37.17
2022-12-09T16:48:29.292Z,36.93
2022-12-09T16:51:14.526Z,61.10
2022-12-09T16:53:46.430Z,49.37
2022-12-09T16:56:25.016Z,50.13
2022-12-09T16:58:53.208Z,49.63
2022-12-09T17:01:22.516Z,43.50
2022-12-09T17:03:49.672Z,36.27
2022-12-09T17:06:18.586Z,48.63
2022-12-09T17:08:45.773Z,65.07
2022-12-09T17:11:13.517Z,51.20
2022-12-09T17:13:40.453Z,47.53
2022-12-09T17:16:08.037Z,52.07
2022-12-09T17:18:35.466Z,58.73
2022-12-09T17:21:08.155Z,59.57
2022-12-09T17:23:39.617Z,53.60
2022-12-09T17:26:12.187Z,63.83
2022-12-09T17:28:39.776Z,83.67
2022-12-09T17:31:15.925Z,86.10
2022-12-09T17:33:46.103Z,50.57
2022-12-09T17:36:15.179Z,50.83
2022-12-09T17:38:42.639Z,49.97
2022-12-09T17:41:13.287Z,42.33
2022-12-09T17:43:40.407Z,42.47
2022-12-09T17:46:07.706Z,49.80
2022-12-09T17:48:35.347Z,44.17
2022-12-09T17:51:09.934Z,57.73
2022-12-09T17:53:37.980Z,40.73
2022-12-09T17:56:13.893Z,38.30
2022-12-09T17:58:41.282Z,45.33
2022-12-09T18:01:17.450Z,40.63
2022-12-09T18:03:56.114Z,44.37
2022-12-09T18:06:23.989Z,39.90
2022-12-09T18:08:51.130Z,39.17
2022-12-09T18:11:18.260Z,46.07
2022-12-09T18:13:45.169Z,50.43
2022-12-09T18:16:12.928Z,45.97
2022-12-09T18:18:41.124Z,49.20
2022-12-09T18:21:15.135Z,52.97
2022-12-09T18:23:43.023Z,50.80
2022-12-09T18:26:11.193Z,45.90
2022-12-09T18:28:38.450Z,45.73
2022-12-09T18:31:07.710Z,46.53
2022-12-09T18:33:35.186Z,52.97
2022-12-09T18:36:10.409Z,54.13
2022-12-09T18:38:38.506Z,52.50
2022-12-09T18:41:05.661Z,51.90
2022-12-09T18:43:38.649Z,56.03
2022-12-09T18:46:25.020Z,55.33
2022-12-09T18:48:59.632Z,43.53
2022-12-09T18:51:26.962Z,41.93
2022-12-09T18:53:54.136Z,42.93
2022-12-09T18:56:21.358Z,52.73
2022-12-09T19:01:39.653Z,40.63
2022-12-09T19:04:10.446Z,39.00
2022-12-09T19:06:39.434Z,41.93
2022-12-09T19:09:33.305Z,39.53
2022-12-09T19:12:22.966Z,42.77
2022-12-09T19:14:49.474Z,44.57
2022-12-09T19:17:18.727Z,39.80
2022-12-09T19:19:47.314Z,35.30
2022-12-09T19:22:14.643Z,59.80
2022-12-09T19:24:43.363Z,49.20
2022-12-09T19:27:10.448Z,46.47
2022-12-09T19:29:37.456Z,53.97
2022-12-09T19:32:07.586Z,53.70
2022-12-09T19:34:41.215Z,57.03
2022-12-09T19:37:07.981Z,50.07
2022-12-09T19:39:35.243Z,46.57
2022-12-09T19:42:02.255Z,52.47
2022-12-09T19:45:00.852Z,45.80
2022-12-09T19:47:16.444Z,48.27
2022-12-09T19:49:44.489Z,49.20
2022-12-09T19:52:12.516Z,47.50
2022-12-09T19:54:39.476Z,53.20
2022-12-09T19:57:06.683Z,46.83
2022-12-09T19:59:33.523Z,48.30
2022-12-09T20:02:00.767Z,43.03
2022-12-09T20:07:15.639Z,41.10
2022-12-09T20:09:42.554Z,43.43
2022-12-09T20:12:09.622Z,41.13
2022-12-09T20:14:36.344Z,45.73
2022-12-09T20:17:03.504Z,44.67
2022-12-09T20:19:31.419Z,54.47
2022-12-09T20:21:58.244Z,51.60
2022-12-09T20:24:25.103Z,48.30
2022-12-09T20:26:52.288Z,37.73
2022-12-09T20:29:19.509Z,38.77
2022-12-09T20:31:46.787Z,41.83
2022-12-09T20:34:16.442Z,46.27
2022-12-09T20:36:44.720Z,46.90
2022-12-09T20:39:21.300Z,45.13
2022-12-09T20:41:48.690Z,44.20
2022-12-09T20:44:16.398Z,42.93
2022-12-09T20:46:49.277Z,49.37
2022-12-09T20:49:16.911Z,49.43
2022-12-09T20:51:47.032Z,59.60
2022-12-09T20:54:14.082Z,53.43
2022-12-09T20:56:41.177Z,64.27
2022-12-09T20:59:10.113Z,55.07
2022-12-09T21:01:38.289Z,74.33
2022-12-09T21:04:06.619Z,88.63
2022-12-09T21:06:36.676Z,102.33
2022-12-09T21:09:06.305Z,101.23
2022-12-09T21:11:33.748Z,102.00
2022-12-09T21:14:02.361Z,100.47
2022-12-09T21:16:31.970Z,102.70
2022-12-09T21:19:02.097Z,139.03
2022-12-09T21:21:31.851Z,119.30
2022-12-09T21:23:59.798Z,116.67
2022-12-09T21:26:27.139Z,112.13
2022-12-09T21:28:54.323Z,126.90
2022-12-09T21:31:25.296Z,135.27
2022-12-09T21:33:54.466Z,137.30
2022-12-09T21:36:26.861Z,189.00
2022-12-09T21:38:54.547Z,167.13
2022-12-09T21:41:27.789Z,118.73
2022-12-09T21:43:55.579Z,161.53
2022-12-09T21:46:25.446Z,114.20
2022-12-09T21:48:58.455Z,152.13
2022-12-09T21:51:28.915Z,205.43
2022-12-09T21:53:56.232Z,208.30
2022-12-09T21:56:25.519Z,161.47
2022-12-09T21:58:55.195Z,122.90
2022-12-09T22:01:30.995Z,186.87
2022-12-09T22:03:59.649Z,125.33
2022-12-09T22:06:27.233Z,141.00
2022-12-09T22:08:54.429Z,143.37
2022-12-09T22:11:26.944Z,161.37
2022-12-09T22:13:55.749Z,116.57
2022-12-09T22:16:24.650Z,137.20
2022-12-09T22:18:54.168Z,100.03
2022-12-09T22:21:25.611Z,93.70
2022-12-09T22:23:58.171Z,137.20
2022-12-09T22:26:25.429Z,164.33
2022-12-09T22:28:52.786Z,114.40
2022-12-09T22:31:25.804Z,144.63
2022-12-09T22:33:55.108Z,195.27
2022-12-09T22:36:22.557Z,285.53
2022-12-09T22:38:49.928Z,114.07
2022-12-09T22:41:19.799Z,79.70
2022-12-09T22:43:48.215Z,91.00
2022-12-09T22:46:17.997Z,101.33
2022-12-09T22:48:45.066Z,82.77
2022-12-09T22:51:15.520Z,76.93
2022-12-09T22:53:43.238Z,73.90
2022-12-09T22:56:11.454Z,87.67
2022-12-09T22:58:38.954Z,89.60
2022-12-09T23:01:14.021Z,83.93
2022-12-09T23:03:41.451Z,75.67
2022-12-09T23:06:09.124Z,94.30
2022-12-09T23:08:37.671Z,94.23
2022-12-09T23:11:11.258Z,78.43
2022-12-09T23:13:41.376Z,84.30
2022-12-09T23:16:09.141Z,84.03
2022-12-09T23:18:36.293Z,77.57
2022-12-09T23:21:12.821Z,89.40
2022-12-09T23:23:40.169Z,82.30
2022-12-09T23:26:14.051Z,75.03
2022-12-09T23:28:46.965Z,80.47
2022-12-09T23:31:15.700Z,76.70
2022-12-09T23:33:44.384Z,78.43
2022-12-09T23:36:17.400Z,78.43
2022-12-09T23:38:44.994Z,66.93
2022-12-09T23:41:12.760Z,68.10
2022-12-09T23:43:39.650Z,66.60
2022-12-09T23:46:16.867Z,70.00
2022-12-09T23:48:45.009Z,67.27
2022-12-09T23:51:14.489Z,59.17
2022-12-09T23:53:42.716Z,63.50
2022-12-09T23:56:16.103Z,57.10
2022-12-09T23:58:44.545Z,52.83
